Terminal Aerodrome Forecast
Issued by NWS

Home | Current Version | Previous Version | Text Only | Print | Product List | Glossary Off
Versions: 1 2 3 4 5 6 7 8 9 10 11 12 13 14 15

677
FTUS41 KCLE 142342
TAFFDY
TAF
KFDY 142342Z 1500/1524 16008KT P6SM BKN200
     FM151400 17012G20KT P6SM OVC120
     FM151700 20014G22KT P6SM VCSH OVC080
      TEMPO 1519/1523 4SM SHRA BKN015 OVC035
     FM152300 23015G25KT P6SM SCT008 OVC015=

USA.gov is the U.S. government's official web portal to all federal, state and local government web resources and services.